sensor_id;sensor_type;location;lat;lon;timestamp;P1;durP1;ratioP1;P2;durP2;ratioP2
9838;SDS011;4958;48.150;11.506;2022-11-04T00:01:19;4.60;;;4.20;;
9838;SDS011;4958;48.150;11.506;2022-11-04T00:03:47;5.17;;;4.23;;
9838;SDS011;4958;48.150;11.506;2022-11-04T00:06:13;9.33;;;4.50;;
9838;SDS011;4958;48.150;11.506;2022-11-04T00:08:40;7.73;;;4.10;;
9838;SDS011;4958;48.150;11.506;2022-11-04T00:11:06;3.97;;;3.60;;
9838;SDS011;4958;48.150;11.506;2022-11-04T00:13:52;4.30;;;3.53;;
9838;SDS011;4958;48.150;11.506;2022-11-04T00:16:18;4.70;;;3.47;;
9838;SDS011;4958;48.150;11.506;2022-11-04T00:19:04;4.53;;;3.43;;
9838;SDS011;4958;48.150;11.506;2022-11-04T00:21:30;3.70;;;3.40;;
9838;SDS011;4958;48.150;11.506;2022-11-04T00:24:14;4.10;;;3.20;;
9838;SDS011;4958;48.150;11.506;2022-11-04T00:27:10;3.23;;;2.93;;
9838;SDS011;4958;48.150;11.506;2022-11-04T00:29:56;4.03;;;3.10;;
9838;SDS011;4958;48.150;11.506;2022-11-04T00:32:22;3.43;;;3.13;;
9838;SDS011;4958;48.150;11.506;2022-11-04T00:35:08;3.20;;;2.80;;
9838;SDS011;4958;48.150;11.506;2022-11-04T00:37:36;3.43;;;3.13;;
9838;SDS011;4958;48.150;11.506;2022-11-04T00:40:03;2.83;;;2.50;;
9838;SDS011;4958;48.150;11.506;2022-11-04T00:42:30;3.10;;;2.67;;
9838;SDS011;4958;48.150;11.506;2022-11-04T00:44:57;3.07;;;2.70;;
9838;SDS011;4958;48.150;11.506;2022-11-04T00:47:24;3.33;;;2.90;;
9838;SDS011;4958;48.150;11.506;2022-11-04T00:49:50;3.27;;;2.53;;
9838;SDS011;4958;48.150;11.506;2022-11-04T00:52:18;2.73;;;2.50;;
9838;SDS011;4958;48.150;11.506;2022-11-04T00:54:44;2.73;;;2.40;;
9838;SDS011;4958;48.150;11.506;2022-11-04T00:57:11;3.20;;;2.63;;
9838;SDS011;4958;48.150;11.506;2022-11-04T00:59:38;2.60;;;2.40;;
9838;SDS011;4958;48.150;11.506;2022-11-04T01:02:05;2.63;;;2.43;;
9838;SDS011;4958;48.150;11.506;2022-11-04T01:04:32;2.40;;;2.10;;
9838;SDS011;4958;48.150;11.506;2022-11-04T01:06:58;2.80;;;1.90;;
9838;SDS011;4958;48.150;11.506;2022-11-04T01:09:26;2.20;;;2.00;;
9838;SDS011;4958;48.150;11.506;2022-11-04T01:11:53;3.73;;;1.90;;
9838;SDS011;4958;48.150;11.506;2022-11-04T01:14:20;2.37;;;2.00;;
9838;SDS011;4958;48.150;11.506;2022-11-04T01:16:47;2.10;;;1.90;;
9838;SDS011;4958;48.150;11.506;2022-11-04T01:19:15;1.90;;;1.80;;
9838;SDS011;4958;48.150;11.506;2022-11-04T01:21:42;2.00;;;1.80;;
9838;SDS011;4958;48.150;11.506;2022-11-04T01:24:09;3.53;;;1.97;;
9838;SDS011;4958;48.150;11.506;2022-11-04T01:26:37;2.10;;;1.90;;
9838;SDS011;4958;48.150;11.506;2022-11-04T01:29:04;2.53;;;2.03;;
9838;SDS011;4958;48.150;11.506;2022-11-04T01:31:30;1.70;;;1.60;;
9838;SDS011;4958;48.150;11.506;2022-11-04T01:33:57;1.70;;;1.60;;
9838;SDS011;4958;48.150;11.506;2022-11-04T01:36:25;3.73;;;1.80;;
9838;SDS011;4958;48.150;11.506;2022-11-04T01:38:53;1.70;;;1.60;;
9838;SDS011;4958;48.150;11.506;2022-11-04T01:41:24;3.00;;;1.37;;
9838;SDS011;4958;48.150;11.506;2022-11-04T01:43:53;3.37;;;1.60;;
9838;SDS011;4958;48.150;11.506;2022-11-04T01:46:28;2.60;;;1.60;;
9838;SDS011;4958;48.150;11.506;2022-11-04T01:49:02;1.47;;;1.30;;
9838;SDS011;4958;48.150;11.506;2022-11-04T01:51:34;1.60;;;1.50;;
9838;SDS011;4958;48.150;11.506;2022-11-04T01:54:02;1.50;;;1.40;;
9838;SDS011;4958;48.150;11.506;2022-11-04T01:56:30;1.30;;;1.20;;
9838;SDS011;4958;48.150;11.506;2022-11-04T01:59:02;1.40;;;1.30;;
9838;SDS011;4958;48.150;11.506;2022-11-04T02:01:32;1.37;;;1.27;;
9838;SDS011;4958;48.150;11.506;2022-11-04T02:03:59;2.30;;;1.30;;
9838;SDS011;4958;48.150;11.506;2022-11-04T02:06:47;1.10;;;1.00;;
9838;SDS011;4958;48.150;11.506;2022-11-04T02:09:14;1.53;;;1.10;;
9838;SDS011;4958;48.150;11.506;2022-11-04T02:11:42;1.40;;;0.97;;
9838;SDS011;4958;48.150;11.506;2022-11-04T02:14:28;1.00;;;1.00;;
9838;SDS011;4958;48.150;11.506;2022-11-04T02:16:56;1.00;;;1.00;;
9838;SDS011;4958;48.150;11.506;2022-11-04T02:19:35;0.93;;;0.93;;
9838;SDS011;4958;48.150;11.506;2022-11-04T02:22:23;1.13;;;1.10;;
9838;SDS011;4958;48.150;11.506;2022-11-04T02:25:09;1.80;;;1.10;;
9838;SDS011;4958;48.150;11.506;2022-11-04T02:27:47;1.07;;;0.97;;
9838;SDS011;4958;48.150;11.506;2022-11-04T02:30:33;0.90;;;0.90;;
9838;SDS011;4958;48.150;11.506;2022-11-04T02:33:10;1.00;;;1.00;;
9838;SDS011;4958;48.150;11.506;2022-11-04T02:35:46;0.87;;;0.83;;
9838;SDS011;4958;48.150;11.506;2022-11-04T02:38:25;1.33;;;0.97;;
9838;SDS011;4958;48.150;11.506;2022-11-04T02:40:59;0.97;;;0.87;;
9838;SDS011;4958;48.150;11.506;2022-11-04T02:43:32;0.90;;;0.90;;
9838;SDS011;4958;48.150;11.506;2022-11-04T02:46:09;0.87;;;0.87;;
9838;SDS011;4958;48.150;11.506;2022-11-04T02:48:44;1.10;;;0.80;;
9838;SDS011;4958;48.150;11.506;2022-11-04T02:51:14;0.70;;;0.70;;
9838;SDS011;4958;48.150;11.506;2022-11-04T02:53:46;1.07;;;0.73;;
9838;SDS011;4958;48.150;11.506;2022-11-04T02:56:16;1.37;;;1.00;;
9838;SDS011;4958;48.150;11.506;2022-11-04T02:58:47;1.27;;;0.90;;
9838;SDS011;4958;48.150;11.506;2022-11-04T03:01:21;1.27;;;0.80;;
9838;SDS011;4958;48.150;11.506;2022-11-04T03:03:53;0.70;;;0.70;;
9838;SDS011;4958;48.150;11.506;2022-11-04T03:06:26;0.70;;;0.70;;
9838;SDS011;4958;48.150;11.506;2022-11-04T03:08:54;0.77;;;0.73;;
9838;SDS011;4958;48.150;11.506;2022-11-04T03:11:24;1.27;;;0.90;;
9838;SDS011;4958;48.150;11.506;2022-11-04T03:13:53;1.17;;;1.10;;
9838;SDS011;4958;48.150;11.506;2022-11-04T03:16:27;0.70;;;0.70;;
9838;SDS011;4958;48.150;11.506;2022-11-04T03:19:01;0.70;;;0.70;;
9838;SDS011;4958;48.150;11.506;2022-11-04T03:21:34;1.17;;;0.87;;
9838;SDS011;4958;48.150;11.506;2022-11-04T03:24:05;0.73;;;0.73;;
9838;SDS011;4958;48.150;11.506;2022-11-04T03:26:32;2.13;;;0.80;;
9838;SDS011;4958;48.150;11.506;2022-11-04T03:29:08;0.80;;;0.80;;
9838;SDS011;4958;48.150;11.506;2022-11-04T03:31:46;0.87;;;0.67;;
9838;SDS011;4958;48.150;11.506;2022-11-04T03:34:19;1.07;;;0.80;;
9838;SDS011;4958;48.150;11.506;2022-11-04T03:36:45;0.80;;;0.80;;
9838;SDS011;4958;48.150;11.506;2022-11-04T03:39:12;1.23;;;0.70;;
9838;SDS011;4958;48.150;11.506;2022-11-04T03:41:39;0.73;;;0.73;;
9838;SDS011;4958;48.150;11.506;2022-11-04T03:44:11;1.30;;;0.60;;
9838;SDS011;4958;48.150;11.506;2022-11-04T03:46:38;0.80;;;0.80;;
9838;SDS011;4958;48.150;11.506;2022-11-04T03:49:06;0.73;;;0.70;;
9838;SDS011;4958;48.150;11.506;2022-11-04T03:51:35;0.70;;;0.70;;
9838;SDS011;4958;48.150;11.506;2022-11-04T03:54:02;0.80;;;0.80;;
9838;SDS011;4958;48.150;11.506;2022-11-04T03:59:27;0.80;;;0.80;;
9838;SDS011;4958;48.150;11.506;2022-11-04T04:02:16;0.67;;;0.67;;
9838;SDS011;4958;48.150;11.506;2022-11-04T04:04:48;0.93;;;0.73;;
9838;SDS011;4958;48.150;11.506;2022-11-04T04:07:28;0.60;;;0.60;;
9838;SDS011;4958;48.150;11.506;2022-11-04T04:10:00;0.93;;;0.80;;
9838;SDS011;4958;48.150;11.506;2022-11-04T04:12:54;0.67;;;0.67;;
9838;SDS011;4958;48.150;11.506;2022-11-04T04:15:26;0.63;;;0.63;;
9838;SDS011;4958;48.150;11.506;2022-11-04T04:17:57;0.70;;;0.70;;
9838;SDS011;4958;48.150;11.506;2022-11-04T04:20:30;0.70;;;0.70;;
9838;SDS011;4958;48.150;11.506;2022-11-04T04:23:01;0.70;;;0.70;;
9838;SDS011;4958;48.150;11.506;2022-11-04T04:25:52;0.70;;;0.70;;
9838;SDS011;4958;48.150;11.506;2022-11-04T04:28:38;0.60;;;0.60;;
9838;SDS011;4958;48.150;11.506;2022-11-04T04:31:07;0.77;;;0.77;;
9838;SDS011;4958;48.150;11.506;2022-11-04T04:33:36;0.60;;;0.60;;
9838;SDS011;4958;48.150;11.506;2022-11-04T04:36:05;0.70;;;0.70;;
9838;SDS011;4958;48.150;11.506;2022-11-04T04:38:34;2.27;;;0.77;;
9838;SDS011;4958;48.150;11.506;2022-11-04T04:41:25;0.70;;;0.70;;
9838;SDS011;4958;48.150;11.506;2022-11-04T04:44:12;0.80;;;0.80;;
9838;SDS011;4958;48.150;11.506;2022-11-04T04:47:09;0.73;;;0.73;;
9838;SDS011;4958;48.150;11.506;2022-11-04T04:49:48;0.60;;;0.60;;
9838;SDS011;4958;48.150;11.506;2022-11-04T04:52:16;1.03;;;0.63;;
9838;SDS011;4958;48.150;11.506;2022-11-04T04:54:42;0.73;;;0.70;;
9838;SDS011;4958;48.150;11.506;2022-11-04T04:57:10;0.67;;;0.67;;
9838;SDS011;4958;48.150;11.506;2022-11-04T04:59:36;0.60;;;0.60;;
9838;SDS011;4958;48.150;11.506;2022-11-04T05:02:02;1.00;;;0.70;;
9838;SDS011;4958;48.150;11.506;2022-11-04T05:04:29;0.60;;;0.60;;
9838;SDS011;4958;48.150;11.506;2022-11-04T05:06:55;0.63;;;0.63;;
9838;SDS011;4958;48.150;11.506;2022-11-04T05:09:23;0.60;;;0.60;;
9838;SDS011;4958;48.150;11.506;2022-11-04T05:11:49;0.53;;;0.53;;
9838;SDS011;4958;48.150;11.506;2022-11-04T05:14:16;0.60;;;0.60;;
9838;SDS011;4958;48.150;11.506;2022-11-04T05:16:42;0.60;;;0.60;;
9838;SDS011;4958;48.150;11.506;2022-11-04T05:19:09;1.40;;;0.70;;
9838;SDS011;4958;48.150;11.506;2022-11-04T05:21:35;0.60;;;0.60;;
9838;SDS011;4958;48.150;11.506;2022-11-04T05:24:02;1.47;;;0.60;;
9838;SDS011;4958;48.150;11.506;2022-11-04T05:26:30;0.70;;;0.70;;
9838;SDS011;4958;48.150;11.506;2022-11-04T05:28:56;0.70;;;0.70;;
9838;SDS011;4958;48.150;11.506;2022-11-04T05:31:23;0.60;;;0.60;;
9838;SDS011;4958;48.150;11.506;2022-11-04T05:33:49;0.60;;;0.60;;
9838;SDS011;4958;48.150;11.506;2022-11-04T05:36:16;0.80;;;0.80;;
9838;SDS011;4958;48.150;11.506;2022-11-04T05:38:42;0.93;;;0.73;;
9838;SDS011;4958;48.150;11.506;2022-11-04T05:41:09;0.83;;;0.67;;
9838;SDS011;4958;48.150;11.506;2022-11-04T05:43:51;0.90;;;0.80;;
9838;SDS011;4958;48.150;11.506;2022-11-04T05:46:18;0.73;;;0.70;;
9838;SDS011;4958;48.150;11.506;2022-11-04T05:48:45;0.70;;;0.70;;
9838;SDS011;4958;48.150;11.506;2022-11-04T05:51:11;0.70;;;0.70;;
9838;SDS011;4958;48.150;11.506;2022-11-04T05:53:39;0.90;;;0.70;;
9838;SDS011;4958;48.150;11.506;2022-11-04T05:56:06;0.83;;;0.83;;
9838;SDS011;4958;48.150;11.506;2022-11-04T05:58:33;0.97;;;0.67;;
9838;SDS011;4958;48.150;11.506;2022-11-04T06:01:11;0.80;;;0.80;;
9838;SDS011;4958;48.150;11.506;2022-11-04T06:03:39;0.80;;;0.80;;
9838;SDS011;4958;48.150;11.506;2022-11-04T06:06:05;0.87;;;0.87;;
9838;SDS011;4958;48.150;11.506;2022-11-04T06:08:32;0.87;;;0.87;;
9838;SDS011;4958;48.150;11.506;2022-11-04T06:10:58;2.57;;;1.17;;
9838;SDS011;4958;48.150;11.506;2022-11-04T06:13:25;0.70;;;0.70;;
9838;SDS011;4958;48.150;11.506;2022-11-04T06:15:52;0.90;;;0.90;;
9838;SDS011;4958;48.150;11.506;2022-11-04T06:18:20;0.87;;;0.87;;
9838;SDS011;4958;48.150;11.506;2022-11-04T06:20:46;0.93;;;0.83;;
9838;SDS011;4958;48.150;11.506;2022-11-04T06:23:13;1.30;;;0.90;;
9838;SDS011;4958;48.150;11.506;2022-11-04T06:25:42;2.10;;;1.00;;
9838;SDS011;4958;48.150;11.506;2022-11-04T06:28:11;1.00;;;0.90;;
9838;SDS011;4958;48.150;11.506;2022-11-04T06:30:37;3.50;;;1.20;;
9838;SDS011;4958;48.150;11.506;2022-11-04T06:33:04;1.30;;;1.20;;
9838;SDS011;4958;48.150;11.506;2022-11-04T06:35:32;1.37;;;0.80;;
9838;SDS011;4958;48.150;11.506;2022-11-04T06:37:59;1.33;;;0.93;;
9838;SDS011;4958;48.150;11.506;2022-11-04T06:40:25;1.97;;;0.90;;
9838;SDS011;4958;48.150;11.506;2022-11-04T06:42:52;1.20;;;1.10;;
9838;SDS011;4958;48.150;11.506;2022-11-04T06:45:18;0.87;;;0.80;;
9838;SDS011;4958;48.150;11.506;2022-11-04T06:47:45;1.10;;;1.00;;
9838;SDS011;4958;48.150;11.506;2022-11-04T06:50:12;1.23;;;0.97;;
9838;SDS011;4958;48.150;11.506;2022-11-04T06:52:40;1.43;;;1.17;;
9838;SDS011;4958;48.150;11.506;2022-11-04T06:55:07;1.50;;;1.03;;
9838;SDS011;4958;48.150;11.506;2022-11-04T06:57:34;2.47;;;1.00;;
9838;SDS011;4958;48.150;11.506;2022-11-04T07:00:00;2.57;;;1.00;;
9838;SDS011;4958;48.150;11.506;2022-11-04T07:02:27;1.07;;;0.97;;
9838;SDS011;4958;48.150;11.506;2022-11-04T07:04:54;0.90;;;0.80;;
9838;SDS011;4958;48.150;11.506;2022-11-04T07:07:20;1.37;;;1.13;;
9838;SDS011;4958;48.150;11.506;2022-11-04T07:09:48;3.13;;;1.10;;
9838;SDS011;4958;48.150;11.506;2022-11-04T07:12:14;3.07;;;1.07;;
9838;SDS011;4958;48.150;11.506;2022-11-04T07:14:41;1.10;;;1.00;;
9838;SDS011;4958;48.150;11.506;2022-11-04T07:17:07;1.67;;;1.13;;
9838;SDS011;4958;48.150;11.506;2022-11-04T07:19:34;1.83;;;0.90;;
9838;SDS011;4958;48.150;11.506;2022-11-04T07:22:00;1.40;;;1.10;;
9838;SDS011;4958;48.150;11.506;2022-11-04T07:24:26;2.40;;;1.10;;
9838;SDS011;4958;48.150;11.506;2022-11-04T07:26:54;1.80;;;0.90;;
9838;SDS011;4958;48.150;11.506;2022-11-04T07:29:21;1.20;;;1.10;;
9838;SDS011;4958;48.150;11.506;2022-11-04T07:31:49;1.33;;;1.03;;
9838;SDS011;4958;48.150;11.506;2022-11-04T07:34:15;1.10;;;1.00;;
9838;SDS011;4958;48.150;11.506;2022-11-04T07:36:42;1.10;;;0.90;;
9838;SDS011;4958;48.150;11.506;2022-11-04T07:39:08;1.83;;;1.03;;
9838;SDS011;4958;48.150;11.506;2022-11-04T07:41:35;2.67;;;1.10;;
9838;SDS011;4958;48.150;11.506;2022-11-04T07:44:02;1.30;;;1.00;;
9838;SDS011;4958;48.150;11.506;2022-11-04T07:46:29;1.10;;;1.00;;
9838;SDS011;4958;48.150;11.506;2022-11-04T07:48:56;1.47;;;1.17;;
9838;SDS011;4958;48.150;11.506;2022-11-04T07:51:23;1.43;;;1.20;;
9838;SDS011;4958;48.150;11.506;2022-11-04T07:53:51;2.07;;;1.00;;
9838;SDS011;4958;48.150;11.506;2022-11-04T07:56:18;2.83;;;1.10;;
9838;SDS011;4958;48.150;11.506;2022-11-04T07:58:44;1.77;;;0.90;;
9838;SDS011;4958;48.150;11.506;2022-11-04T08:01:13;1.93;;;1.20;;
9838;SDS011;4958;48.150;11.506;2022-11-04T08:03:41;3.53;;;1.20;;
9838;SDS011;4958;48.150;11.506;2022-11-04T08:06:08;2.80;;;1.13;;
9838;SDS011;4958;48.150;11.506;2022-11-04T08:08:36;1.40;;;1.10;;
9838;SDS011;4958;48.150;11.506;2022-11-04T08:11:03;1.67;;;1.20;;
9838;SDS011;4958;48.150;11.506;2022-11-04T08:13:31;1.70;;;1.10;;
9838;SDS011;4958;48.150;11.506;2022-11-04T08:16:00;2.20;;;1.37;;
9838;SDS011;4958;48.150;11.506;2022-11-04T08:18:29;1.97;;;0.83;;
9838;SDS011;4958;48.150;11.506;2022-11-04T08:20:55;1.60;;;1.10;;
9838;SDS011;4958;48.150;11.506;2022-11-04T08:23:22;1.53;;;0.90;;
9838;SDS011;4958;48.150;11.506;2022-11-04T08:25:49;0.90;;;0.90;;
9838;SDS011;4958;48.150;11.506;2022-11-04T08:28:16;1.00;;;1.00;;
9838;SDS011;4958;48.150;11.506;2022-11-04T08:30:50;1.80;;;1.00;;
9838;SDS011;4958;48.150;11.506;2022-11-04T08:33:17;3.63;;;1.20;;
9838;SDS011;4958;48.150;11.506;2022-11-04T08:35:45;1.70;;;1.00;;
9838;SDS011;4958;48.150;11.506;2022-11-04T08:38:12;1.10;;;1.00;;
9838;SDS011;4958;48.150;11.506;2022-11-04T08:40:38;2.17;;;1.30;;
9838;SDS011;4958;48.150;11.506;2022-11-04T08:43:05;1.20;;;1.10;;
9838;SDS011;4958;48.150;11.506;2022-11-04T08:45:32;1.10;;;0.97;;
9838;SDS011;4958;48.150;11.506;2022-11-04T08:47:58;1.20;;;1.10;;
9838;SDS011;4958;48.150;11.506;2022-11-04T08:50:25;1.53;;;1.20;;
9838;SDS011;4958;48.150;11.506;2022-11-04T08:52:53;0.90;;;0.80;;
9838;SDS011;4958;48.150;11.506;2022-11-04T08:55:19;1.00;;;1.00;;
9838;SDS011;4958;48.150;11.506;2022-11-04T08:57:46;1.00;;;1.00;;
9838;SDS011;4958;48.150;11.506;2022-11-04T09:00:13;1.00;;;0.97;;
9838;SDS011;4958;48.150;11.506;2022-11-04T09:02:40;1.37;;;1.03;;
9838;SDS011;4958;48.150;11.506;2022-11-04T09:05:06;1.03;;;1.03;;
9838;SDS011;4958;48.150;11.506;2022-11-04T09:07:35;1.37;;;1.00;;
9838;SDS011;4958;48.150;11.506;2022-11-04T09:10:03;1.10;;;1.00;;
9838;SDS011;4958;48.150;11.506;2022-11-04T09:12:30;1.40;;;1.07;;
9838;SDS011;4958;48.150;11.506;2022-11-04T09:14:57;1.10;;;1.00;;
9838;SDS011;4958;48.150;11.506;2022-11-04T09:17:23;1.10;;;1.03;;
9838;SDS011;4958;48.150;11.506;2022-11-04T09:19:50;1.57;;;1.20;;
9838;SDS011;4958;48.150;11.506;2022-11-04T09:22:16;1.77;;;1.60;;
9838;SDS011;4958;48.150;11.506;2022-11-04T09:24:43;1.73;;;1.20;;
9838;SDS011;4958;48.150;11.506;2022-11-04T09:27:10;1.93;;;1.40;;
9838;SDS011;4958;48.150;11.506;2022-11-04T09:29:37;1.63;;;1.50;;
9838;SDS011;4958;48.150;11.506;2022-11-04T09:32:05;1.37;;;1.27;;
9838;SDS011;4958;48.150;11.506;2022-11-04T09:34:32;1.43;;;1.17;;
9838;SDS011;4958;48.150;11.506;2022-11-04T09:36:58;1.77;;;1.40;;
9838;SDS011;4958;48.150;11.506;2022-11-04T09:39:25;2.00;;;1.30;;
9838;SDS011;4958;48.150;11.506;2022-11-04T09:41:57;1.30;;;1.20;;
9838;SDS011;4958;48.150;11.506;2022-11-04T09:44:41;1.53;;;1.20;;
9838;SDS011;4958;48.150;11.506;2022-11-04T09:47:13;1.90;;;1.70;;
9838;SDS011;4958;48.150;11.506;2022-11-04T09:49:41;1.23;;;1.00;;
9838;SDS011;4958;48.150;11.506;2022-11-04T09:52:13;2.00;;;1.00;;
9838;SDS011;4958;48.150;11.506;2022-11-04T09:54:45;0.97;;;0.80;;
9838;SDS011;4958;48.150;11.506;2022-11-04T09:57:19;2.23;;;0.90;;
9838;SDS011;4958;48.150;11.506;2022-11-04T09:59:47;1.40;;;0.90;;
9838;SDS011;4958;48.150;11.506;2022-11-04T10:05:26;2.33;;;1.10;;
9838;SDS011;4958;48.150;11.506;2022-11-04T10:08:21;1.50;;;1.40;;
9838;SDS011;4958;48.150;11.506;2022-11-04T10:11:01;1.77;;;1.50;;
9838;SDS011;4958;48.150;11.506;2022-11-04T10:13:34;1.70;;;1.50;;
9838;SDS011;4958;48.150;11.506;2022-11-04T10:16:29;2.27;;;1.40;;
9838;SDS011;4958;48.150;11.506;2022-11-04T10:19:18;2.27;;;1.60;;
9838;SDS011;4958;48.150;11.506;2022-11-04T10:22:00;1.60;;;1.50;;
9838;SDS011;4958;48.150;11.506;2022-11-04T10:24:34;2.97;;;1.50;;
9838;SDS011;4958;48.150;11.506;2022-11-04T10:27:09;1.97;;;1.50;;
9838;SDS011;4958;48.150;11.506;2022-11-04T10:29:41;2.93;;;1.37;;
9838;SDS011;4958;48.150;11.506;2022-11-04T10:32:12;2.53;;;1.23;;
9838;SDS011;4958;48.150;11.506;2022-11-04T10:34:43;1.30;;;1.20;;
9838;SDS011;4958;48.150;11.506;2022-11-04T10:37:13;1.67;;;1.40;;
9838;SDS011;4958;48.150;11.506;2022-11-04T10:39:40;1.40;;;1.30;;
9838;SDS011;4958;48.150;11.506;2022-11-04T10:42:09;1.87;;;1.40;;
9838;SDS011;4958;48.150;11.506;2022-11-04T10:44:37;3.27;;;1.40;;
9838;SDS011;4958;48.150;11.506;2022-11-04T10:47:07;1.63;;;1.33;;
9838;SDS011;4958;48.150;11.506;2022-11-04T10:49:48;2.47;;;1.67;;
9838;SDS011;4958;48.150;11.506;2022-11-04T10:52:22;3.10;;;1.60;;
9838;SDS011;4958;48.150;11.506;2022-11-04T10:54:49;6.60;;;1.60;;
9838;SDS011;4958;48.150;11.506;2022-11-04T10:57:17;2.90;;;1.70;;
9838;SDS011;4958;48.150;11.506;2022-11-04T10:59:50;1.70;;;1.43;;
9838;SDS011;4958;48.150;11.506;2022-11-04T11:02:26;3.30;;;1.50;;
9838;SDS011;4958;48.150;11.506;2022-11-04T11:05:13;1.40;;;1.30;;
9838;SDS011;4958;48.150;11.506;2022-11-04T11:07:46;1.70;;;1.50;;
9838;SDS011;4958;48.150;11.506;2022-11-04T11:10:15;25.70;;;11.60;;
9838;SDS011;4958;48.150;11.506;2022-11-04T11:12:49;20.13;;;7.63;;
9838;SDS011;4958;48.150;11.506;2022-11-04T11:15:17;4.37;;;2.87;;
9838;SDS011;4958;48.150;11.506;2022-11-04T11:17:52;2.53;;;1.80;;
9838;SDS011;4958;48.150;11.506;2022-11-04T11:20:24;1.63;;;1.30;;
9838;SDS011;4958;48.150;11.506;2022-11-04T11:22:51;1.57;;;1.30;;
9838;SDS011;4958;48.150;11.506;2022-11-04T11:25:23;1.67;;;1.40;;
9838;SDS011;4958;48.150;11.506;2022-11-04T11:27:51;1.43;;;1.20;;
9838;SDS011;4958;48.150;11.506;2022-11-04T11:30:21;2.87;;;1.20;;
9838;SDS011;4958;48.150;11.506;2022-11-04T11:32:50;1.73;;;1.20;;
9838;SDS011;4958;48.150;11.506;2022-11-04T11:35:22;1.30;;;1.20;;
9838;SDS011;4958;48.150;11.506;2022-11-04T11:37:52;1.77;;;1.10;;
9838;SDS011;4958;48.150;11.506;2022-11-04T11:40:26;1.97;;;1.30;;
9838;SDS011;4958;48.150;11.506;2022-11-04T11:42:56;2.10;;;1.33;;
9838;SDS011;4958;48.150;11.506;2022-11-04T11:45:24;1.70;;;1.10;;
9838;SDS011;4958;48.150;11.506;2022-11-04T11:47:51;1.30;;;1.10;;
9838;SDS011;4958;48.150;11.506;2022-11-04T11:50:23;1.30;;;1.20;;
9838;SDS011;4958;48.150;11.506;2022-11-04T11:53:05;1.77;;;1.33;;
9838;SDS011;4958;48.150;11.506;2022-11-04T11:55:41;3.47;;;1.60;;
9838;SDS011;4958;48.150;11.506;2022-11-04T11:58:15;1.57;;;1.40;;
9838;SDS011;4958;48.150;11.506;2022-11-04T12:00:52;1.60;;;1.17;;
9838;SDS011;4958;48.150;11.506;2022-11-04T12:03:26;1.30;;;1.20;;
9838;SDS011;4958;48.150;11.506;2022-11-04T12:05:59;1.30;;;1.20;;
9838;SDS011;4958;48.150;11.506;2022-11-04T12:08:45;1.40;;;1.20;;
9838;SDS011;4958;48.150;11.506;2022-11-04T12:11:23;2.57;;;1.30;;
9838;SDS011;4958;48.150;11.506;2022-11-04T12:13:59;1.50;;;1.40;;
9838;SDS011;4958;48.150;11.506;2022-11-04T12:16:31;1.40;;;1.30;;
9838;SDS011;4958;48.150;11.506;2022-11-04T12:19:11;1.87;;;1.20;;
9838;SDS011;4958;48.150;11.506;2022-11-04T12:21:47;2.67;;;1.20;;
9838;SDS011;4958;48.150;11.506;2022-11-04T12:24:26;2.13;;;1.27;;
9838;SDS011;4958;48.150;11.506;2022-11-04T12:27:01;1.43;;;1.17;;
9838;SDS011;4958;48.150;11.506;2022-11-04T12:29:39;1.30;;;1.20;;
9838;SDS011;4958;48.150;11.506;2022-11-04T12:32:26;2.17;;;1.10;;
9838;SDS011;4958;48.150;11.506;2022-11-04T12:35:05;3.80;;;1.20;;
9838;SDS011;4958;48.150;11.506;2022-11-04T12:37:45;2.90;;;1.20;;
9838;SDS011;4958;48.150;11.506;2022-11-04T12:40:24;1.23;;;1.00;;
9838;SDS011;4958;48.150;11.506;2022-11-04T12:42:58;2.17;;;1.30;;
9838;SDS011;4958;48.150;11.506;2022-11-04T12:45:36;1.77;;;1.40;;
9838;SDS011;4958;48.150;11.506;2022-11-04T12:48:20;2.23;;;1.30;;
9838;SDS011;4958;48.150;11.506;2022-11-04T12:51:04;1.40;;;1.13;;
9838;SDS011;4958;48.150;11.506;2022-11-04T12:53:43;2.00;;;1.20;;
9838;SDS011;4958;48.150;11.506;2022-11-04T12:56:23;1.63;;;1.00;;
9838;SDS011;4958;48.150;11.506;2022-11-04T12:59:09;1.40;;;1.13;;
9838;SDS011;4958;48.150;11.506;2022-11-04T13:01:51;1.97;;;1.03;;
9838;SDS011;4958;48.150;11.506;2022-11-04T13:04:21;3.50;;;1.00;;
9838;SDS011;4958;48.150;11.506;2022-11-04T13:06:53;1.07;;;1.00;;
9838;SDS011;4958;48.150;11.506;2022-11-04T13:09:24;2.73;;;1.17;;
9838;SDS011;4958;48.150;11.506;2022-11-04T13:12:00;1.57;;;1.20;;
9838;SDS011;4958;48.150;11.506;2022-11-04T13:14:33;1.50;;;1.20;;
9838;SDS011;4958;48.150;11.506;2022-11-04T13:17:10;1.93;;;1.30;;
9838;SDS011;4958;48.150;11.506;2022-11-04T13:19:42;1.40;;;1.20;;
9838;SDS011;4958;48.150;11.506;2022-11-04T13:22:17;1.53;;;1.10;;
9838;SDS011;4958;48.150;11.506;2022-11-04T13:24:48;1.57;;;1.10;;
9838;SDS011;4958;48.150;11.506;2022-11-04T13:27:18;1.97;;;1.30;;
9838;SDS011;4958;48.150;11.506;2022-11-04T13:29:47;1.33;;;1.20;;
9838;SDS011;4958;48.150;11.506;2022-11-04T13:32:18;1.27;;;1.17;;
9838;SDS011;4958;48.150;11.506;2022-11-04T13:34:52;1.40;;;1.30;;
9838;SDS011;4958;48.150;11.506;2022-11-04T13:37:25;1.70;;;1.30;;
9838;SDS011;4958;48.150;11.506;2022-11-04T13:39:57;1.40;;;1.30;;
9838;SDS011;4958;48.150;11.506;2022-11-04T13:42:34;1.50;;;1.40;;
9838;SDS011;4958;48.150;11.506;2022-11-04T13:45:12;1.43;;;1.30;;
9838;SDS011;4958;48.150;11.506;2022-11-04T13:47:43;2.33;;;1.53;;
9838;SDS011;4958;48.150;11.506;2022-11-04T13:50:26;1.47;;;1.30;;
9838;SDS011;4958;48.150;11.506;2022-11-04T13:52:58;1.40;;;1.30;;
9838;SDS011;4958;48.150;11.506;2022-11-04T13:55:25;1.60;;;1.30;;
9838;SDS011;4958;48.150;11.506;2022-11-04T13:57:52;3.00;;;1.53;;
9838;SDS011;4958;48.150;11.506;2022-11-04T14:00:21;1.67;;;1.43;;
9838;SDS011;4958;48.150;11.506;2022-11-04T14:02:50;3.80;;;1.60;;
9838;SDS011;4958;48.150;11.506;2022-11-04T14:08:20;3.03;;;1.43;;
9838;SDS011;4958;48.150;11.506;2022-11-04T14:13:45;1.97;;;1.50;;
9838;SDS011;4958;48.150;11.506;2022-11-04T14:16:40;1.87;;;1.70;;
9838;SDS011;4958;48.150;11.506;2022-11-04T14:22:28;1.40;;;1.30;;
9838;SDS011;4958;48.150;11.506;2022-11-04T14:24:59;1.70;;;1.33;;
9838;SDS011;4958;48.150;11.506;2022-11-04T14:27:37;1.40;;;1.30;;
9838;SDS011;4958;48.150;11.506;2022-11-04T14:30:06;1.43;;;1.27;;
9838;SDS011;4958;48.150;11.506;2022-11-04T14:32:53;1.53;;;1.10;;
9838;SDS011;4958;48.150;11.506;2022-11-04T14:35:21;1.37;;;1.00;;
9838;SDS011;4958;48.150;11.506;2022-11-04T14:37:50;1.30;;;0.90;;
9838;SDS011;4958;48.150;11.506;2022-11-04T14:40:23;1.10;;;0.90;;
9838;SDS011;4958;48.150;11.506;2022-11-04T14:42:53;1.10;;;1.00;;
9838;SDS011;4958;48.150;11.506;2022-11-04T14:45:21;1.30;;;1.20;;
9838;SDS011;4958;48.150;11.506;2022-11-04T14:47:51;1.67;;;0.87;;
9838;SDS011;4958;48.150;11.506;2022-11-04T14:50:22;1.70;;;1.10;;
9838;SDS011;4958;48.150;11.506;2022-11-04T14:52:52;1.40;;;1.00;;
9838;SDS011;4958;48.150;11.506;2022-11-04T14:55:24;1.43;;;0.90;;
9838;SDS011;4958;48.150;11.506;2022-11-04T14:57:54;1.63;;;1.10;;
9838;SDS011;4958;48.150;11.506;2022-11-04T15:00:27;3.90;;;1.10;;
9838;SDS011;4958;48.150;11.506;2022-11-04T15:03:09;1.43;;;1.10;;
9838;SDS011;4958;48.150;11.506;2022-11-04T15:05:39;1.37;;;1.27;;
9838;SDS011;4958;48.150;11.506;2022-11-04T15:08:24;2.33;;;1.00;;
9838;SDS011;4958;48.150;11.506;2022-11-04T15:11:04;1.37;;;1.10;;
9838;SDS011;4958;48.150;11.506;2022-11-04T15:13:33;1.10;;;1.00;;
9838;SDS011;4958;48.150;11.506;2022-11-04T15:16:02;2.77;;;0.90;;
9838;SDS011;4958;48.150;11.506;2022-11-04T15:18:35;1.37;;;1.10;;
9838;SDS011;4958;48.150;11.506;2022-11-04T15:21:04;1.83;;;1.00;;
9838;SDS011;4958;48.150;11.506;2022-11-04T15:23:32;1.10;;;1.00;;
9838;SDS011;4958;48.150;11.506;2022-11-04T15:26:00;1.20;;;1.00;;
9838;SDS011;4958;48.150;11.506;2022-11-04T15:28:31;1.00;;;0.97;;
9838;SDS011;4958;48.150;11.506;2022-11-04T15:31:02;2.20;;;1.30;;
9838;SDS011;4958;48.150;11.506;2022-11-04T15:33:36;1.20;;;1.03;;
9838;SDS011;4958;48.150;11.506;2022-11-04T15:36:06;1.20;;;1.10;;
9838;SDS011;4958;48.150;11.506;2022-11-04T15:38:35;1.30;;;1.20;;
9838;SDS011;4958;48.150;11.506;2022-11-04T15:41:06;1.43;;;1.03;;